Time;durP1;ratioP1;P1;durP2;ratioP2;P2;SDS_P1;SDS_P2;PMS_P1;PMS_P2;Temp;Humidity;BMP_temperature;BMP_pressure;BME280_temperature;BME280_humidity;BME280_pressure;Samples;Min_cycle;Max_cycle;Signal;HPM_P1;HPM_P2
2022/12/13 00:00:17;;;;;;;31.50;18.40;;;-0.60;73.30;;;;;;5099752;27;20402;-67
2022/12/13 00:02:44;;;;;;;32.37;20.20;;;-0.60;73.20;;;;;;5125089;27;20047;-66
2022/12/13 00:05:10;;;;;;;29.27;16.63;;;-0.60;73.20;;;;;;5066648;27;20191;-74
2022/12/13 00:07:36;;;;;;;29.20;16.77;;;-0.60;73.20;;;;;;5121255;27;20597;-74
2022/12/13 00:10:04;;;;;;;30.60;18.43;;;-0.60;73.20;;;;;;5121299;27;20081;-67
2022/12/13 00:12:30;;;;;;;31.43;19.47;;;-0.60;73.20;;;;;;5102897;27;20043;-66
2022/12/13 00:14:55;;;;;;;31.23;17.07;;;-0.60;73.00;;;;;;5118061;27;20046;-66
2022/12/13 00:17:21;;;;;;;28.40;17.07;;;-0.60;72.90;;;;;;5125336;27;20039;-66
2022/12/13 00:19:47;;;;;;;28.07;16.97;;;-0.60;73.00;;;;;;5126482;27;20129;-66
2022/12/13 00:22:13;;;;;;;31.77;17.80;;;-0.70;72.90;;;;;;5101853;27;20423;-66
2022/12/13 00:24:39;;;;;;;30.33;16.87;;;-0.40;72.90;;;;;;5121095;27;20039;-66
2022/12/13 00:27:05;;;;;;;30.10;17.20;;;-0.70;72.60;;;;;;5121130;27;20050;-66
2022/12/13 00:29:31;;;;;;;29.60;16.13;;;-0.70;72.60;;;;;;5103753;27;20047;-66
2022/12/13 00:31:57;;;;;;;26.97;16.00;;;-0.70;72.60;;;;;;5116457;27;20058;-66
2022/12/13 00:34:23;;;;;;;28.80;17.53;;;-0.70;72.50;;;;;;5105494;27;20043;-66
2022/12/13 00:36:48;;;;;;;24.93;15.53;;;-0.80;72.50;;;;;;5127378;27;20179;-66
2022/12/13 00:39:15;;;;;;;29.47;16.90;;;-0.80;72.60;;;;;;5124861;27;20039;-66
2022/12/13 00:41:42;;;;;;;29.00;17.07;;;-0.80;72.60;;;;;;5133002;27;20038;-66
2022/12/13 00:44:11;;;;;;;28.97;17.27;;;-0.80;72.60;;;;;;5125517;27;20067;-66
2022/12/13 00:46:37;;;;;;;26.90;15.93;;;-0.80;72.60;;;;;;5123611;27;20084;-66
2022/12/13 00:49:04;;;;;;;26.73;15.67;;;-0.80;72.60;;;;;;5132631;27;20117;-66
2022/12/13 00:51:32;;;;;;;27.57;16.17;;;-0.80;72.70;;;;;;5111996;27;20043;-66
2022/12/13 00:53:58;;;;;;;30.77;16.23;;;-0.80;72.70;;;;;;5119393;27;20130;-66
2022/12/13 00:56:27;;;;;;;26.97;15.93;;;-0.80;72.70;;;;;;5129122;27;20067;-66
2022/12/13 00:58:54;;;;;;;28.40;16.20;;;-0.80;72.70;;;;;;5132807;27;20530;-66
2022/12/13 01:01:23;;;;;;;27.13;16.80;;;-0.80;72.70;;;;;;5130299;27;20475;-66
2022/12/13 01:03:49;;;;;;;30.33;16.10;;;-0.80;72.70;;;;;;5108040;27;20504;-66
2022/12/13 01:06:18;;;;;;;27.30;16.63;;;-0.80;72.70;;;;;;5134073;27;20114;-66
2022/12/13 01:08:45;;;;;;;26.83;14.70;;;-0.80;72.70;;;;;;5114929;27;20030;-66
2022/12/13 01:11:12;;;;;;;30.27;16.73;;;-0.80;72.70;;;;;;5115420;27;20035;-65
2022/12/13 01:13:38;;;;;;;25.93;14.90;;;-0.80;72.60;;;;;;5119956;27;20114;-66
2022/12/13 01:16:07;;;;;;;26.73;15.43;;;-0.90;72.50;;;;;;5115529;27;20035;-66
2022/12/13 01:18:33;;;;;;;28.30;16.60;;;-0.90;72.50;;;;;;5114844;27;20110;-66
2022/12/13 01:21:07;;;;;;;26.90;15.40;;;-0.90;72.50;;;;;;5098373;27;20435;-66
2022/12/13 01:23:33;;;;;;;21.80;13.32;;;-0.90;72.50;;;;;;5126895;27;20046;-66
2022/12/13 01:26:02;;;;;;;28.60;16.27;;;-0.90;72.50;;;;;;5123285;27;20028;-73
2022/12/13 01:28:27;;;;;;;26.40;15.10;;;-0.90;72.60;;;;;;5115314;27;20039;-73
2022/12/13 01:30:59;;;;;;;25.30;15.27;;;-0.90;72.50;;;;;;5121261;27;20502;-72
2022/12/13 01:33:25;;;;;;;31.37;17.47;;;-0.90;72.50;;;;;;5114929;28;20069;-73
2022/12/13 01:35:51;;;;;;;26.93;15.27;;;-0.90;72.50;;;;;;5131426;27;20043;-73
2022/12/13 01:38:17;;;;;;;28.10;16.10;;;-0.90;72.40;;;;;;5113193;28;20039;-73
2022/12/13 01:40:56;;;;;;;31.17;16.10;;;-0.90;72.40;;;;;;5125255;28;20043;-72
2022/12/13 01:43:48;;;;;;;25.33;15.13;;;-0.90;72.50;;;;;;5118522;28;20039;-73
2022/12/13 01:46:15;;;;;;;27.93;15.13;;;-1.00;72.40;;;;;;5131725;28;20047;-73
2022/12/13 01:48:49;;;;;;;28.60;15.00;;;-1.00;72.40;;;;;;5131873;28;20047;-73
2022/12/13 01:51:20;;;;;;;27.75;15.93;;;-1.00;72.50;;;;;;5114611;28;20096;-72
2022/12/13 01:53:47;;;;;;;26.83;15.33;;;-1.00;72.40;;;;;;5114846;28;20047;-73
2022/12/13 01:56:20;;;;;;;24.20;14.63;;;-1.00;72.50;;;;;;5122844;28;20039;-73
2022/12/13 01:58:47;;;;;;;27.80;15.73;;;-1.00;72.50;;;;;;5127301;28;20039;-73
2022/12/13 02:01:13;;;;;;;23.57;14.57;;;-1.00;72.60;;;;;;5114926;28;20542;-73
2022/12/13 02:03:38;;;;;;;26.80;14.77;;;-1.00;72.60;;;;;;5125014;28;20119;-73
2022/12/13 02:06:20;;;;;;;25.43;14.80;;;-1.00;72.60;;;;;;5131892;28;20027;-73
2022/12/13 02:08:46;;;;;;;27.57;14.90;;;-1.00;72.70;;;;;;5117365;28;20035;-72
2022/12/13 02:11:13;;;;;;;30.30;16.23;;;-1.00;72.60;;;;;;5114883;28;20109;-72
2022/12/13 02:13:38;;;;;;;24.53;14.57;;;-1.10;72.20;;;;;;5097773;28;20058;-72
2022/12/13 02:16:23;;;;;;;25.73;14.50;;;-1.10;71.40;;;;;;5131347;28;20031;-73
2022/12/13 02:19:20;;;;;;;26.60;15.47;;;-1.20;70.80;;;;;;5114594;28;20035;-72
2022/12/13 02:21:58;;;;;;;24.87;13.47;;;-1.20;70.60;;;;;;5122517;28;20053;-73
2022/12/13 02:24:24;;;;;;;22.33;14.67;;;-1.30;70.60;;;;;;5117774;28;20444;-73
2022/12/13 02:26:54;;;;;;;25.37;14.40;;;-1.30;70.90;;;;;;5130218;28;20039;-72
2022/12/13 02:29:35;;;;;;;22.03;14.27;;;-1.30;71.30;;;;;;5125991;28;20035;-72
2022/12/13 02:32:11;;;;;;;25.40;14.57;;;-1.40;71.50;;;;;;5114657;28;20043;-72
2022/12/13 02:34:47;;;;;;;22.77;14.93;;;-1.40;71.70;;;;;;5102465;28;20410;-73
2022/12/13 02:37:29;;;;;;;26.13;14.73;;;-1.40;71.80;;;;;;5124015;28;20039;-72
2022/12/13 02:40:39;;;;;;;25.13;13.70;;;-1.40;72.00;;;;;;5130645;28;20047;-73
2022/12/13 02:43:16;;;;;;;22.37;14.10;;;-1.40;72.10;;;;;;5094707;28;20058;-73
2022/12/13 02:45:49;;;;;;;25.83;14.47;;;-1.40;72.30;;;;;;5123383;27;20077;-73
2022/12/13 02:48:23;;;;;;;25.87;14.67;;;-1.40;72.40;;;;;;5134876;27;20114;-72
2022/12/13 02:50:51;;;;;;;26.38;15.07;;;-1.40;72.40;;;;;;5130599;27;20511;-72
2022/12/13 02:53:20;;;;;;;25.33;14.33;;;-1.50;72.10;;;;;;5126189;27;20114;-72
2022/12/13 02:55:46;;;;;;;28.73;16.87;;;-1.50;72.20;;;;;;5122178;27;20035;-72
2022/12/13 02:58:14;;;;;;;22.87;14.07;;;-1.40;72.40;;;;;;5118237;27;20066;-72
2022/12/13 03:00:55;;;;;;;22.70;13.93;;;-1.40;72.50;;;;;;5129120;27;20485;-73
2022/12/13 03:03:46;;;;;;;25.97;14.87;;;-1.50;72.50;;;;;;5118133;27;20555;-72
2022/12/13 03:06:29;;;;;;;25.97;15.93;;;-1.40;72.60;;;;;;5100791;27;20126;-72
2022/12/13 03:09:13;;;;;;;24.27;13.77;;;-1.50;72.60;;;;;;5113977;27;20070;-72
2022/12/13 03:15:13;;;;;;;27.97;15.43;;;-1.50;72.50;;;;;;5121542;27;20406;-72
2022/12/13 03:17:44;;;;;;;25.17;14.20;;;-1.50;72.40;;;;;;5119473;27;20490;-73
2022/12/13 03:20:16;;;;;;;22.43;13.50;;;-1.50;72.50;;;;;;5115724;27;20063;-72
2022/12/13 03:22:42;;;;;;;24.00;14.30;;;-1.50;72.50;;;;;;5117745;27;20046;-72
2022/12/13 03:25:08;;;;;;;24.40;13.73;;;-1.50;72.50;;;;;;5129520;27;20042;-73
2022/12/13 03:27:34;;;;;;;25.83;14.80;;;-1.50;72.50;;;;;;5109263;27;20127;-73
2022/12/13 03:29:59;;;;;;;26.37;16.10;;;-1.40;72.50;;;;;;5130950;27;20066;-72
2022/12/13 03:32:25;;;;;;;25.87;14.33;;;-1.30;72.60;;;;;;5125316;27;20054;-72
2022/12/13 03:34:51;;;;;;;22.00;13.50;;;-1.50;72.60;;;;;;5111766;27;20038;-73
2022/12/13 03:37:17;;;;;;;22.90;13.70;;;-1.50;72.60;;;;;;5134891;27;20058;-73
2022/12/13 03:39:42;;;;;;;28.40;16.60;;;-1.50;72.60;;;;;;5107764;27;20075;-73
2022/12/13 03:42:08;;;;;;;24.13;14.13;;;-1.50;72.50;;;;;;5105654;27;20071;-73
2022/12/13 03:44:33;;;;;;;24.70;15.37;;;-1.50;72.60;;;;;;5134001;27;20508;-72
2022/12/13 03:46:59;;;;;;;22.47;13.63;;;-1.50;72.50;;;;;;5100451;27;20046;-72
2022/12/13 03:49:25;;;;;;;24.93;14.20;;;-1.50;72.50;;;;;;5117036;27;20398;-73
2022/12/13 03:51:50;;;;;;;21.30;12.90;;;-1.50;72.50;;;;;;5125711;27;20043;-72
2022/12/13 03:54:16;;;;;;;25.80;14.87;;;-1.40;72.50;;;;;;5110816;27;20040;-73
2022/12/13 03:56:42;;;;;;;22.90;13.60;;;-1.50;72.40;;;;;;5117708;27;20047;-72
2022/12/13 03:59:07;;;;;;;22.70;13.97;;;-1.50;72.30;;;;;;5097125;28;20085;-72
2022/12/13 04:01:33;;;;;;;25.77;15.50;;;-1.50;72.30;;;;;;5116362;27;20035;-72
2022/12/13 04:03:59;;;;;;;22.33;14.10;;;-1.50;72.30;;;;;;5125660;27;20094;-73
2022/12/13 04:06:24;;;;;;;19.97;12.90;;;-1.50;72.20;;;;;;5123606;27;20100;-73
2022/12/13 04:08:51;;;;;;;22.10;13.03;;;-1.50;72.20;;;;;;5116980;27;20039;-72
2022/12/13 04:14:01;;;;;;;23.75;13.85;;;-1.50;72.20;;;;;;5111346;27;20039;-71
2022/12/13 04:16:27;;;;;;;24.83;14.00;;;-1.50;72.20;;;;;;5116744;27;20039;-72
2022/12/13 04:18:52;;;;;;;24.13;13.50;;;-1.50;72.10;;;;;;5116403;27;20126;-72
2022/12/13 04:21:18;;;;;;;24.40;14.33;;;-1.50;72.10;;;;;;5124918;27;20035;-73
2022/12/13 04:23:44;;;;;;;23.00;14.17;;;-1.50;72.00;;;;;;5116770;27;20039;-72
2022/12/13 04:26:09;;;;;;;24.13;13.60;;;-1.60;71.90;;;;;;5134950;27;20539;-72
2022/12/13 04:28:35;;;;;;;20.50;11.57;;;-1.60;72.00;;;;;;5116215;27;20037;-72
2022/12/13 04:31:01;;;;;;;21.60;13.77;;;-1.60;72.00;;;;;;5123082;27;20489;-72
2022/12/13 04:33:27;;;;;;;21.27;13.87;;;-1.60;71.90;;;;;;5117309;27;20039;-72
2022/12/13 04:35:52;;;;;;;24.33;14.60;;;-1.60;71.80;;;;;;5116139;27;20043;-72
2022/12/13 04:38:18;;;;;;;22.33;13.63;;;-1.60;71.80;;;;;;5124579;27;20035;-72
2022/12/13 04:40:44;;;;;;;20.97;12.73;;;-1.60;71.80;;;;;;5124514;27;20130;-72
2022/12/13 04:43:10;;;;;;;22.73;13.97;;;-1.60;71.80;;;;;;5127835;27;20445;-72
2022/12/13 04:45:36;;;;;;;20.67;13.40;;;-1.60;71.80;;;;;;5122988;27;20114;-72
2022/12/13 04:48:01;;;;;;;24.17;14.60;;;-1.60;71.80;;;;;;5112858;27;20114;-72
2022/12/13 04:50:27;;;;;;;21.30;13.30;;;-1.60;71.90;;;;;;5115929;27;20120;-72
2022/12/13 04:52:53;;;;;;;23.10;13.90;;;-1.60;71.90;;;;;;5107750;27;20122;-72
2022/12/13 04:55:18;;;;;;;23.70;13.07;;;-1.60;71.80;;;;;;5124712;27;20039;-72
2022/12/13 04:57:44;;;;;;;26.03;13.90;;;-1.60;71.60;;;;;;5105393;27;20039;-72
2022/12/13 05:00:12;;;;;;;23.17;14.87;;;-1.60;71.60;;;;;;5126741;27;20038;-72
2022/12/13 05:02:38;;;;;;;22.03;13.23;;;-1.60;71.50;;;;;;5132347;27;20510;-72
2022/12/13 05:05:04;;;;;;;22.97;14.23;;;-1.70;71.50;;;;;;5101135;27;20490;-72
2022/12/13 05:07:29;;;;;;;28.93;15.33;;;-1.70;71.60;;;;;;5117849;27;20046;-72
2022/12/13 05:09:55;;;;;;;25.10;13.97;;;-1.70;71.40;;;;;;5115980;27;20515;-72
2022/12/13 05:12:21;;;;;;;22.40;14.23;;;-1.80;71.20;;;;;;5118923;27;20486;-72
2022/12/13 05:14:46;;;;;;;22.60;13.73;;;-1.80;71.00;;;;;;5114303;27;20467;-72
2022/12/13 05:17:12;;;;;;;23.73;14.13;;;-1.80;70.60;;;;;;5115391;27;20466;-72
2022/12/13 05:19:37;;;;;;;23.53;14.30;;;-1.80;70.30;;;;;;5122501;27;20412;-72
2022/12/13 05:22:03;;;;;;;23.60;14.03;;;-1.90;70.10;;;;;;5128440;27;20518;-72
2022/12/13 05:24:30;;;;;;;22.23;13.80;;;-1.90;70.20;;;;;;5125392;27;20039;-72
2022/12/13 05:26:56;;;;;;;21.93;13.47;;;-1.90;70.30;;;;;;5115385;27;20122;-72
2022/12/13 05:29:22;;;;;;;25.90;14.40;;;-2.00;70.50;;;;;;5132318;27;20436;-72
2022/12/13 05:31:48;;;;;;;27.80;16.30;;;-2.00;70.70;;;;;;5130635;27;20043;-72
2022/12/13 05:34:14;;;;;;;27.20;16.67;;;-1.90;70.90;;;;;;5124550;27;20038;-72
2022/12/13 05:36:39;;;;;;;25.27;15.50;;;-2.00;70.90;;;;;;5125351;27;20033;-72
2022/12/13 05:39:05;;;;;;;23.37;13.83;;;-2.00;70.80;;;;;;5115068;28;20031;-72
2022/12/13 05:41:34;;;;;;;25.17;15.13;;;-2.00;70.70;;;;;;5115287;28;20063;-72
2022/12/13 05:44:00;;;;;;;24.50;14.07;;;-2.10;70.80;;;;;;5115368;27;20490;-72
2022/12/13 05:46:25;;;;;;;27.73;15.53;;;-2.00;71.10;;;;;;5115276;28;20039;-71
2022/12/13 05:48:51;;;;;;;26.30;15.20;;;-2.10;71.10;;;;;;5115118;28;20081;-71
2022/12/13 05:51:16;;;;;;;28.07;14.97;;;-2.10;70.90;;;;;;5107123;28;20039;-72
2022/12/13 05:53:42;;;;;;;24.13;14.60;;;-2.10;70.80;;;;;;5115205;28;20043;-72
2022/12/13 05:56:09;;;;;;;27.13;14.97;;;-2.10;70.90;;;;;;5114931;28;20035;-73
2022/12/13 05:58:37;;;;;;;28.43;16.17;;;-2.10;71.10;;;;;;5114394;28;20607;-72
2022/12/13 06:01:08;;;;;;;27.63;14.37;;;-2.10;71.20;;;;;;5130301;28;20042;-71
2022/12/13 06:03:34;;;;;;;26.00;15.70;;;-2.10;71.30;;;;;;5122609;28;20046;-72
2022/12/13 06:06:00;;;;;;;29.27;15.43;;;-2.10;71.40;;;;;;5129523;28;20118;-72
2022/12/13 06:08:26;;;;;;;24.43;13.10;;;-2.10;71.50;;;;;;5124965;28;20046;-72
2022/12/13 06:10:56;;;;;;;25.97;15.63;;;-2.10;71.40;;;;;;5118442;28;20035;-73
2022/12/13 06:13:22;;;;;;;26.20;14.53;;;-2.10;71.40;;;;;;5121558;28;20069;-72
2022/12/13 06:15:48;;;;;;;24.53;14.60;;;-2.20;71.20;;;;;;5126641;28;20039;-74
2022/12/13 06:18:14;;;;;;;25.73;14.53;;;-2.20;71.30;;;;;;5122309;27;20561;-71
2022/12/13 06:20:40;;;;;;;25.10;15.03;;;-2.20;71.50;;;;;;5115526;28;20210;-71
2022/12/13 06:23:05;;;;;;;25.73;14.60;;;-2.20;71.70;;;;;;5098010;28;20040;-72
2022/12/13 06:25:31;;;;;;;26.00;14.63;;;-2.20;71.90;;;;;;5115623;28;20074;-74
2022/12/13 06:27:57;;;;;;;22.80;14.47;;;-2.10;72.10;;;;;;5114878;28;20039;-71
2022/12/13 06:30:22;;;;;;;25.57;14.90;;;-2.10;72.20;;;;;;5113884;28;20035;-74
2022/12/13 06:32:51;;;;;;;26.47;14.60;;;-2.10;72.20;;;;;;5114674;28;20597;-73
2022/12/13 06:35:17;;;;;;;26.93;16.10;;;-2.10;72.30;;;;;;5112757;28;20498;-71
2022/12/13 06:37:42;;;;;;;27.30;15.97;;;-2.10;72.30;;;;;;5097700;28;20075;-72
2022/12/13 06:40:09;;;;;;;27.00;14.77;;;-2.10;72.00;;;;;;5115032;28;20038;-72
2022/12/13 06:42:34;;;;;;;25.43;13.70;;;-2.20;71.80;;;;;;5114687;28;20075;-72
2022/12/13 06:45:00;;;;;;;28.97;16.83;;;-2.10;71.90;;;;;;5097485;28;20447;-71
2022/12/13 06:47:26;;;;;;;33.77;18.77;;;-2.20;72.00;;;;;;5114589;28;20038;-71
2022/12/13 06:49:52;;;;;;;25.83;15.87;;;-2.20;71.60;;;;;;5115157;28;20043;-71
2022/12/13 06:52:17;;;;;;;24.17;14.30;;;-2.20;71.30;;;;;;5114865;28;20524;-71
2022/12/13 06:54:43;;;;;;;25.53;15.07;;;-2.30;71.20;;;;;;5114881;28;20043;-72
2022/12/13 06:57:12;;;;;;;24.03;15.17;;;-2.30;71.50;;;;;;5113637;28;20067;-65
2022/12/13 06:59:38;;;;;;;32.53;16.63;;;-2.30;72.30;;;;;;5114320;28;20076;-64
2022/12/13 07:02:04;;;;;;;28.93;16.00;;;-2.30;72.10;;;;;;5113995;28;20118;-64
2022/12/13 07:04:31;;;;;;;26.80;16.63;;;-2.30;72.20;;;;;;5113658;28;20035;-65
2022/12/13 07:06:56;;;;;;;23.10;13.67;;;-2.30;72.10;;;;;;5114637;28;20050;-64
2022/12/13 07:09:22;;;;;;;26.63;15.57;;;-2.30;72.00;;;;;;5114091;28;20482;-65
2022/12/13 07:11:48;;;;;;;27.23;15.50;;;-2.30;72.10;;;;;;5096499;28;20035;-67
2022/12/13 07:14:14;;;;;;;25.87;16.23;;;-2.30;72.30;;;;;;5096816;28;20036;-71
2022/12/13 07:16:40;;;;;;;27.43;16.20;;;-2.30;72.30;;;;;;5114339;28;20058;-68
2022/12/13 07:19:05;;;;;;;27.57;16.60;;;-2.20;72.30;;;;;;5119092;27;20082;-67
2022/12/13 07:21:31;;;;;;;27.43;16.50;;;-2.20;72.20;;;;;;5131467;27;20120;-65
2022/12/13 07:23:57;;;;;;;26.73;16.07;;;-2.20;72.20;;;;;;5114412;27;20038;-65
2022/12/13 07:26:23;;;;;;;27.40;16.43;;;-2.20;72.10;;;;;;5108191;27;20519;-65
2022/12/13 07:28:50;;;;;;;25.40;14.80;;;-2.20;72.10;;;;;;5114270;28;20054;-66
2022/12/13 07:31:16;;;;;;;28.63;15.40;;;-2.20;72.00;;;;;;5121648;27;20035;-65
2022/12/13 07:33:41;;;;;;;29.63;16.37;;;-2.20;72.00;;;;;;5108930;27;20435;-65
2022/12/13 07:36:19;;;;;;;25.90;16.73;;;-2.20;72.00;;;;;;5117076;27;20047;-66
2022/12/13 07:38:53;;;;;;;29.90;16.90;;;-2.20;72.00;;;;;;5134092;27;20035;-65
2022/12/13 07:41:20;;;;;;;25.17;15.38;;;-2.20;72.10;;;;;;5117332;27;20126;-65
2022/12/13 07:43:46;;;;;;;32.03;17.77;;;-2.20;72.10;;;;;;5114028;28;20041;-65
2022/12/13 07:46:12;;;;;;;29.20;17.13;;;-2.20;71.80;;;;;;5114274;27;20039;-66
2022/12/13 07:48:37;;;;;;;32.53;17.87;;;-2.20;71.30;;;;;;5115997;27;20071;-65
2022/12/13 07:51:10;;;;;;;30.50;17.33;;;-2.30;71.00;;;;;;5133901;27;20070;-65
2022/12/13 07:53:37;;;;;;;30.27;17.80;;;-2.40;70.70;;;;;;5133570;27;20031;-65
2022/12/13 07:56:04;;;;;;;28.70;16.43;;;-2.40;70.40;;;;;;5116675;27;20047;-65
2022/12/13 07:58:32;;;;;;;29.23;17.87;;;-2.50;70.40;;;;;;5124415;27;20112;-64
2022/12/13 08:01:03;;;;;;;30.77;18.53;;;-2.60;70.50;;;;;;5113781;27;20123;-64
2022/12/13 08:03:29;;;;;;;33.90;18.90;;;-2.60;70.70;;;;;;5113868;27;20043;-65
2022/12/13 08:05:59;;;;;;;29.07;15.93;;;-2.70;70.80;;;;;;5114600;27;20391;-72
2022/12/13 08:08:25;;;;;;;28.43;16.97;;;-2.70;71.00;;;;;;5078994;27;20039;-65
2022/12/13 08:10:51;;;;;;;30.93;17.17;;;-2.70;71.20;;;;;;5105369;28;20036;-72
2022/12/13 08:13:16;;;;;;;29.20;18.07;;;-2.80;71.50;;;;;;5121293;27;20042;-65
2022/12/13 08:15:42;;;;;;;34.93;20.07;;;-2.80;71.70;;;;;;5132729;27;20108;-73
2022/12/13 08:18:07;;;;;;;28.50;16.60;;;-2.80;71.90;;;;;;5115531;27;20039;-71
2022/12/13 08:20:33;;;;;;;28.63;17.80;;;-2.80;72.10;;;;;;5113945;27;20075;-71
2022/12/13 08:22:59;;;;;;;31.23;18.77;;;-2.80;72.30;;;;;;5096273;28;20027;-72
2022/12/13 08:25:25;;;;;;;38.47;19.63;;;-2.70;72.60;;;;;;5113424;28;20556;-72
2022/12/13 08:27:51;;;;;;;34.23;17.33;;;-2.70;72.70;;;;;;5113163;28;20383;-71
2022/12/13 08:30:17;;;;;;;32.97;17.97;;;-2.70;72.80;;;;;;5112955;28;20105;-71
2022/12/13 08:32:43;;;;;;;32.60;18.47;;;-2.70;72.90;;;;;;5095631;28;20039;-71
2022/12/13 08:35:09;;;;;;;32.03;18.23;;;-2.60;73.10;;;;;;5112873;28;20046;-72
2022/12/13 08:37:35;;;;;;;30.70;18.93;;;-2.60;73.20;;;;;;5095799;28;20043;-73
2022/12/13 08:40:00;;;;;;;32.63;18.93;;;-2.60;73.30;;;;;;5112681;28;20038;-72
2022/12/13 08:42:26;;;;;;;37.27;19.27;;;-2.50;73.50;;;;;;5112303;28;20096;-73
2022/12/13 08:44:52;;;;;;;30.63;18.57;;;-2.50;73.40;;;;;;5112499;28;20047;-73
2022/12/13 08:47:20;;;;;;;34.20;17.80;;;-2.50;73.30;;;;;;5112456;28;20043;-73
2022/12/13 08:49:46;;;;;;;34.70;18.43;;;-2.40;73.40;;;;;;5112409;28;20043;-73
2022/12/13 08:52:11;;;;;;;32.03;17.87;;;-2.40;73.40;;;;;;5112790;28;20440;-72
2022/12/13 08:54:37;;;;;;;30.50;18.60;;;-2.40;73.50;;;;;;5095547;28;20509;-72
2022/12/13 08:57:03;;;;;;;34.70;17.97;;;-2.30;73.70;;;;;;5112293;28;20545;-73
2022/12/13 08:59:28;;;;;;;33.03;18.47;;;-2.30;73.80;;;;;;5112240;28;20394;-70
2022/12/13 09:01:54;;;;;;;34.93;18.27;;;-2.20;73.90;;;;;;5112205;28;20130;-70
2022/12/13 09:04:20;;;;;;;32.53;18.47;;;-2.20;74.00;;;;;;5095258;28;20470;-72
2022/12/13 09:06:45;;;;;;;33.77;19.13;;;-2.20;74.10;;;;;;5112162;28;20122;-72
2022/12/13 09:09:11;;;;;;;31.87;18.33;;;-2.10;74.20;;;;;;5112099;28;20039;-71
2022/12/13 09:11:39;;;;;;;32.67;18.17;;;-2.10;74.30;;;;;;5111987;28;20139;-72
2022/12/13 09:14:06;;;;;;;35.07;19.50;;;-2.00;74.40;;;;;;5112087;28;20430;-72
2022/12/13 09:16:35;;;;;;;32.50;20.00;;;-2.00;74.40;;;;;;5095463;28;20500;-72
2022/12/13 09:19:01;;;;;;;39.47;22.10;;;-1.90;74.40;;;;;;5113908;27;20120;-71
2022/12/13 09:21:28;;;;;;;32.33;18.73;;;-1.90;74.80;;;;;;5115597;27;20046;-71
2022/12/13 09:23:54;;;;;;;35.27;20.87;;;-1.90;74.40;;;;;;5121222;27;20126;-71
2022/12/13 09:26:20;;;;;;;34.40;19.70;;;-1.80;74.60;;;;;;5131384;27;20035;-71
2022/12/13 09:28:46;;;;;;;34.17;19.83;;;-1.80;74.70;;;;;;5115504;27;20050;-72
2022/12/13 09:31:14;;;;;;;33.87;20.90;;;-1.70;74.90;;;;;;5123820;27;20035;-72
2022/12/13 09:33:40;;;;;;;34.77;20.93;;;-1.60;75.10;;;;;;5132048;27;20110;-71
2022/12/13 09:36:07;;;;;;;36.67;21.03;;;-1.60;75.20;;;;;;5124987;27;20118;-72
2022/12/13 09:38:34;;;;;;;35.00;20.50;;;-1.50;75.30;;;;;;5115375;27;20091;-72
2022/12/13 09:41:42;;;;;;;37.53;21.23;;;-1.40;75.50;;;;;;5098301;28;20038;-72
2022/12/13 09:44:20;;;;;;;38.73;22.13;;;-1.30;75.50;;;;;;5015491;28;20048;-72
2022/12/13 09:46:47;;;;;;;35.40;20.03;;;-1.20;75.60;;;;;;5108019;27;20475;-72
2022/12/13 09:49:34;;;;;;;37.47;22.57;;;-1.20;76.00;;;;;;5115158;28;20078;-66
2022/12/13 09:52:05;;;;;;;35.80;21.23;;;-1.10;75.60;;;;;;5111337;28;20047;-66
2022/12/13 09:54:32;;;;;;;41.57;21.40;;;-1.00;75.60;;;;;;5124737;27;20039;-66
2022/12/13 09:56:58;;;;;;;38.83;22.03;;;-0.90;75.70;;;;;;5119354;27;20050;-66
2022/12/13 09:59:31;;;;;;;36.57;21.90;;;-0.90;75.60;;;;;;5119564;27;20035;-66
2022/12/13 10:02:02;;;;;;;40.33;22.67;;;-0.80;75.70;;;;;;5102378;27;20050;-67
2022/12/13 10:04:28;;;;;;;32.97;21.50;;;-0.70;75.70;;;;;;5111598;27;20043;-66
2022/12/13 10:06:56;;;;;;;34.40;21.07;;;-0.60;75.50;;;;;;5119317;27;20039;-66
2022/12/13 10:09:22;;;;;;;35.50;21.43;;;-0.60;75.50;;;;;;5119208;27;20076;-67
2022/12/13 10:11:50;;;;;;;38.10;21.10;;;-0.50;75.40;;;;;;5121862;27;20043;-67
2022/12/13 10:14:39;;;;;;;34.60;20.80;;;-0.50;75.40;;;;;;5118498;27;20537;-68
2022/12/13 10:17:08;;;;;;;34.77;21.43;;;-0.40;75.50;;;;;;5135696;27;20043;-66
2022/12/13 10:19:43;;;;;;;37.50;20.67;;;-0.40;75.40;;;;;;5135668;27;20054;-66
2022/12/13 10:22:21;;;;;;;35.43;21.53;;;-0.40;75.30;;;;;;5121908;27;20072;-66
2022/12/13 10:24:54;;;;;;;38.60;22.90;;;-0.30;75.50;;;;;;5119137;27;20122;-66
2022/12/13 10:27:28;;;;;;;33.20;20.70;;;-0.30;75.60;;;;;;5101624;27;20035;-66
2022/12/13 10:30:19;;;;;;;25.80;15.37;;;-0.20;75.60;;;;;;5133162;27;20047;-66
2022/12/13 10:32:56;;;;;;;36.87;20.10;;;-0.20;75.70;;;;;;5120833;27;20047;-66
2022/12/13 10:35:28;;;;;;;32.00;19.63;;;-0.10;75.80;;;;;;5135260;27;20039;-66
2022/12/13 10:37:56;;;;;;;33.87;20.10;;;0.00;75.90;;;;;;5118431;27;20043;-67
2022/12/13 10:40:29;;;;;;;36.47;20.77;;;0.00;75.80;;;;;;5120363;27;20035;-66
2022/12/13 10:43:21;;;;;;;34.50;20.20;;;0.10;75.80;;;;;;5118695;27;20474;-67
2022/12/13 10:45:59;;;;;;;32.07;20.27;;;0.10;75.70;;;;;;5101607;27;20039;-66
2022/12/13 10:48:43;;;;;;;35.43;19.67;;;0.20;75.60;;;;;;5125039;27;20428;-67
2022/12/13 10:51:15;;;;;;;33.37;20.10;;;0.30;75.60;;;;;;5134991;27;20050;-66
2022/12/13 10:53:45;;;;;;;34.13;20.30;;;0.30;75.60;;;;;;5135324;27;20398;-65
2022/12/13 10:56:12;;;;;;;34.23;21.10;;;0.40;75.60;;;;;;5135021;27;20100;-66
2022/12/13 10:58:40;;;;;;;34.47;21.33;;;0.40;75.50;;;;;;5118637;27;20069;-66
2022/12/13 11:01:17;;;;;;;29.10;19.37;;;0.40;75.40;;;;;;5118374;27;20490;-66
2022/12/13 11:03:56;;;;;;;32.57;20.07;;;0.50;75.40;;;;;;5118432;27;20050;-67
2022/12/13 11:06:24;;;;;;;33.77;21.00;;;0.50;75.40;;;;;;5126193;27;20046;-66
2022/12/13 11:08:51;;;;;;;35.27;20.57;;;0.50;75.30;;;;;;5127781;27;20046;-66
2022/12/13 11:11:25;;;;;;;37.23;21.43;;;0.60;75.30;;;;;;5117866;27;20090;-66
2022/12/13 11:13:54;;;;;;;31.90;21.00;;;0.60;75.30;;;;;;5111929;27;20043;-66
2022/12/13 11:16:39;;;;;;;33.13;21.87;;;0.70;75.20;;;;;;5131007;27;20338;-66
2022/12/13 11:19:14;;;;;;;34.78;19.67;;;0.70;75.20;;;;;;5112227;27;20066;-66
2022/12/13 11:21:46;;;;;;;30.53;21.07;;;0.70;75.00;;;;;;5117826;27;20135;-66
2022/12/13 11:24:27;;;;;;;33.93;20.83;;;0.70;75.00;;;;;;5121240;27;20039;-66
2022/12/13 11:27:17;;;;;;;33.93;21.03;;;0.80;75.00;;;;;;5134437;27;20035;-71
2022/12/13 11:30:07;;;;;;;31.30;19.73;;;0.80;75.00;;;;;;5082688;27;20059;-72
2022/12/13 11:32:52;;;;;;;30.57;20.27;;;0.80;75.00;;;;;;5132615;27;20045;-71
2022/12/13 11:35:50;;;;;;;34.30;22.00;;;0.80;74.90;;;;;;5118116;27;20581;-71
2022/12/13 11:38:18;;;;;;;34.33;21.43;;;0.80;74.80;;;;;;5117584;27;20118;-73
2022/12/13 11:40:50;;;;;;;35.00;21.03;;;0.80;74.70;;;;;;5117668;27;20051;-72
2022/12/13 11:43:25;;;;;;;36.50;23.07;;;0.80;74.60;;;;;;5111706;27;20089;-72
2022/12/13 11:45:55;;;;;;;35.10;21.97;;;0.80;74.50;;;;;;5134637;27;20454;-74
2022/12/13 11:48:33;;;;;;;36.77;22.10;;;0.80;74.80;;;;;;5134609;27;20413;-74
2022/12/13 11:51:00;;;;;;;33.33;21.30;;;0.80;74.40;;;;;;5110174;27;20435;-74
2022/12/13 11:53:33;;;;;;;33.53;21.63;;;0.80;74.40;;;;;;5134165;27;20477;-73
2022/12/13 11:56:24;;;;;;;31.03;21.23;;;0.90;74.60;;;;;;5109450;27;20049;-72
2022/12/13 11:59:11;;;;;;;33.27;22.43;;;0.80;74.60;;;;;;5117193;27;20118;-72
2022/12/13 12:01:54;;;;;;;39.20;22.40;;;0.90;74.70;;;;;;5130535;27;20083;-72
2022/12/13 12:04:49;;;;;;;36.07;23.10;;;0.90;74.70;;;;;;5133603;27;20043;-72
2022/12/13 12:07:33;;;;;;;31.77;21.35;;;0.90;74.60;;;;;;5132911;27;20074;-72
2022/12/13 12:10:05;;;;;;;28.23;18.63;;;0.90;74.70;;;;;;5125500;27;20034;-72
2022/12/13 12:12:33;;;;;;;30.33;19.13;;;0.90;74.60;;;;;;5116955;27;20046;-71
2022/12/13 12:15:17;;;;;;;29.97;18.50;;;0.90;74.60;;;;;;5116943;27;20398;-72
2022/12/13 12:17:43;;;;;;;27.58;17.77;;;0.90;74.60;;;;;;5116048;27;20138;-72
2022/12/13 12:20:13;;;;;;;28.80;18.37;;;0.90;74.50;;;;;;5133109;27;20040;-72
2022/12/13 12:23:07;;;;;;;29.67;18.60;;;1.00;74.50;;;;;;5133446;27;20035;-72
2022/12/13 12:25:50;;;;;;;27.23;17.67;;;1.00;74.40;;;;;;5133360;27;20099;-72
2022/12/13 12:28:18;;;;;;;30.37;19.17;;;1.00;74.20;;;;;;5119746;27;20043;-73
2022/12/13 12:30:59;;;;;;;28.10;18.10;;;1.00;74.10;;;;;;5133278;27;20062;-72
2022/12/13 12:34:00;;;;;;;32.43;18.23;;;1.00;74.10;;;;;;5133037;27;20043;-73
2022/12/13 12:36:35;;;;;;;31.40;17.33;;;1.00;73.80;;;;;;5130680;27;20053;-73
2022/12/13 12:39:21;;;;;;;30.75;19.35;;;1.00;73.80;;;;;;5116518;27;20371;-73
2022/12/13 12:41:54;;;;;;;33.40;19.77;;;1.00;73.80;;;;;;5116358;27;20039;-72
2022/12/13 12:44:49;;;;;;;28.07;18.03;;;1.00;73.70;;;;;;5116618;27;20062;-73
2022/12/13 12:47:36;;;;;;;26.53;16.87;;;1.00;73.60;;;;;;5108606;27;20039;-73